.
WxDataArchive / Data Records for 2013-04-24
2013-04-23 April 2013 2013-04-25

Data Records for Wednesday, 24 April 2013

Time	Temp	Chill	HIndex	Humid	Dewpt	 Wind 	HiWind	WindDir	Rain 	Barom 
-----	----	-----	------	-----	-----	------	------	-------	-----	----- 
00:00	56.5	56.5	56.5	95	55.1	0	1	315	0.01	29.770 
00:05	56.5	56.5	56.5	95	55.1	1	3	315	0.01	29.770 
00:10	56.3	56.3	56.3	95	54.9	1	3	315	0.01	29.770 
00:15	55.9	55.9	55.9	95	54.5	1	3	315	0.01	29.776 
00:20	54.1	54.1	54.1	94	52.4	1	4	315	0.01	29.776 
00:25	52.5	52.5	52.5	94	50.8	1	3	315	0.01	29.776 
00:30	51.6	51.6	51.6	94	49.9	1	3	315	0.01	29.782 
00:35	50.8	50.8	50.8	94	49.1	0	3	315	0.01	29.782 
00:40	50.4	50.4	50.4	94	48.7	0	2	315	0.02	29.782 
00:45	50.2	50.2	50.2	95	48.8	0	1	315	0.01	29.777 
00:50	49.8	49.8	49.8	95	48.4	0	2	315	0.01	29.777 
00:55	49.5	49.5	49.5	95	48.1	0	2	315	0.01	29.777 
01:00	49.2	49.2	49.2	95	47.8	0	3	270	0.01	29.777 
01:05	49.1	49.1	49.1	95	47.7	1	3	270	0.01	29.777 
01:10	48.8	48.8	48.8	95	47.4	1	3	270	0.01	29.777 
01:15	48.6	48.6	48.6	95	47.2	0	2	270	0.00	29.769 
01:20	48.3	48.3	48.3	95	46.9	0	3	270	0.01	29.769 
01:25	48.0	48.0	48.0	95	46.6	1	2	270	0.00	29.769 
01:30	47.9	47.9	47.9	95	46.5	0	2	270	0.00	29.758 
01:35	47.7	47.7	47.7	95	46.3	0	2	270	0.00	29.758 
01:40	47.7	47.7	47.7	95	46.3	0	2	270	0.00	29.758 
01:45	47.6	47.6	47.6	95	46.2	0	3	270	0.01	29.755 
01:50	47.4	47.4	47.4	95	46.0	0	3	270	0.00	29.755 
01:55	47.3	47.3	47.3	95	45.9	2	4	270	0.00	29.755 
02:00	47.0	47.0	47.0	95	45.6	1	4	292	0.00	29.756 
02:05	46.8	46.8	46.8	95	45.4	1	4	292	0.00	29.756 
02:10	46.7	46.7	46.7	95	45.3	1	5	292	0.00	29.756 
02:15	46.5	46.5	46.5	95	45.1	1	5	315	0.00	29.764 
02:20	46.5	46.5	46.5	95	45.1	1	5	315	0.00	29.764 
02:25	46.4	46.4	46.4	95	45.0	1	4	270	0.00	29.764 
02:30	46.2	46.2	46.2	95	44.8	1	3	292	0.00	29.757 
02:35	46.1	46.1	46.1	95	44.7	1	4	270	0.00	29.757 
02:40	46.1	46.1	46.1	95	44.7	0	1	270	0.00	29.757 
02:45	46.0	46.0	46.0	95	44.6	0	2	270	0.01	29.738 
02:50	46.0	46.0	46.0	95	44.6	1	3	270	0.00	29.738 
02:55	46.0	46.0	46.0	95	44.6	1	4	292	0.00	29.738 
03:00	46.0	46.0	46.0	95	44.6	1	4	270	0.00	29.758 
03:05	45.8	45.8	45.8	95	44.4	2	5	315	0.00	29.758 
03:10	45.7	45.7	45.7	95	44.4	2	4	292	0.00	29.758 
03:15	45.7	45.7	45.7	95	44.4	1	4	292	0.00	29.754 
03:20	45.7	45.7	45.7	95	44.4	1	3	292	0.01	29.754 
03:25	45.7	45.7	45.7	95	44.4	1	2	292	0.00	29.754 
03:30	45.7	45.7	45.7	95	44.4	1	4	292	0.00	29.758 
03:35	45.7	45.7	45.7	95	44.4	1	3	270	0.01	29.758 
03:40	45.5	45.5	45.5	95	44.2	2	5	270	0.00	29.758 
03:45	45.4	45.4	45.4	95	44.1	1	4	270	0.01	29.759 
03:50	45.2	45.2	45.2	95	43.9	2	7	0	0.00	29.759 
03:55	45.1	45.1	45.1	95	43.8	2	7	292	0.00	29.759 
04:00	45.1	45.1	45.1	95	43.8	2	4	292	0.00	29.751 
04:05	44.9	44.9	44.9	95	43.6	2	4	338	0.00	29.751 
04:10	44.9	44.9	44.9	95	43.6	2	5	270	0.00	29.751 
04:15	44.9	44.9	44.9	95	43.6	1	4	270	0.00	29.767 
04:20	44.9	44.9	44.9	95	43.6	1	3	270	0.00	29.767 
04:25	44.8	44.8	44.8	95	43.5	2	4	292	0.00	29.767 
04:30	44.6	44.6	44.6	95	43.3	2	5	270	0.01	29.801 
04:35	44.5	44.5	44.5	95	43.2	1	3	292	0.00	29.801 
04:40	44.3	44.3	44.3	95	43.0	1	3	338	0.01	29.801 
04:45	44.2	44.2	44.2	95	42.9	1	5	338	0.00	29.773 
04:50	44.1	44.1	44.1	95	42.8	0	4	270	0.01	29.773 
04:55	43.9	43.9	43.9	95	42.6	1	4	270	0.00	29.773 
05:00	43.9	43.9	43.9	95	42.6	2	4	270	0.01	29.806 
05:05	43.5	43.5	43.5	95	42.2	2	7	248	0.00	29.806 
05:10	43.2	43.2	43.2	95	41.9	2	4	0	0.01	29.806 
05:15	43.1	43.1	43.1	95	41.8	2	9	270	0.00	29.792 
05:20	43.1	43.1	43.1	95	41.8	1	3	338	0.01	29.792 
05:25	42.9	42.9	42.9	95	41.6	2	6	270	0.00	29.792 
05:30	42.8	42.8	42.8	95	41.5	1	4	270	0.00	29.815 
05:35	42.5	42.5	42.5	94	40.9	2	4	292	0.01	29.815 
05:40	42.3	42.3	42.3	94	40.7	2	6	292	0.00	29.815 
05:45	42.2	42.2	42.2	95	40.9	1	4	270	0.00	29.805 
05:50	42.1	42.1	42.1	94	40.5	2	4	315	0.01	29.805 
05:55	41.9	41.9	41.9	95	40.6	2	5	270	0.00	29.805 
06:00	41.9	41.9	41.9	95	40.6	1	3	315	0.01	29.811 
06:05	41.9	41.9	41.9	95	40.6	1	2	315	0.00	29.811 
06:10	41.9	41.9	41.9	95	40.6	0	3	315	0.00	29.811 
06:15	41.9	41.9	41.9	95	40.6	1	4	315	0.01	29.805 
06:20	41.9	41.9	41.9	95	40.6	1	6	292	0.00	29.805 
06:25	41.8	41.8	41.8	95	40.5	1	4	338	0.00	29.805 
06:30	41.8	41.8	41.8	95	40.5	2	5	292	0.00	29.818 
06:35	41.8	41.8	41.8	95	40.5	1	4	270	0.01	29.818 
06:40	41.8	41.8	41.8	95	40.5	2	4	270	0.00	29.818 
06:45	41.6	41.6	41.6	95	40.3	2	5	270	0.00	29.821 
06:50	41.5	41.5	41.5	95	40.2	2	5	292	0.00	29.821 
06:55	41.5	41.5	41.5	95	40.2	2	5	338	0.00	29.821 
07:00	41.2	41.2	41.2	94	39.6	3	11	292	0.01	29.834 
07:05	41.1	41.1	41.1	94	39.5	1	5	270	0.00	29.834 
07:10	40.9	40.9	40.9	94	39.3	2	5	315	0.00	29.834 
07:15	40.8	40.8	40.8	94	39.2	2	6	270	0.01	29.825 
07:20	40.6	40.6	40.6	94	39.0	2	6	22	0.00	29.825 
07:25	40.6	40.6	40.6	94	39.0	1	4	248	0.00	29.825 
07:30	40.5	40.5	40.5	94	38.9	1	4	0	0.00	29.834 
07:35	40.3	40.3	40.3	94	38.7	1	5	248	0.01	29.834 
07:40	40.1	40.1	40.1	94	38.5	2	7	292	0.00	29.834 
07:45	39.8	39.8	39.8	94	38.2	1	4	338	0.00	29.846 
07:50	39.6	39.6	39.6	94	38.0	2	5	338	0.00	29.846 
07:55	39.6	39.6	39.6	94	38.0	1	3	338	0.00	29.846 
08:00	39.6	39.6	39.6	94	38.0	2	5	270	0.00	29.850 
08:05	39.6	39.6	39.6	94	38.0	1	5	270	0.00	29.850 
08:10	39.3	39.3	39.3	94	37.7	2	6	270	0.00	29.850 
08:15	39.2	39.2	39.2	94	37.6	1	6	338	0.00	29.850 
08:20	39.2	39.2	39.2	94	37.6	1	4	270	0.00	29.850 
08:25	38.8	38.8	38.8	94	37.2	1	5	270	0.00	29.850 
08:30	38.5	38.5	38.5	94	36.9	1	4	338	0.00	29.858 
08:35	38.3	38.3	38.3	94	36.7	1	4	0	0.01	29.858 
08:40	38.2	38.2	38.2	94	36.6	1	4	0	0.00	29.858 
08:45	38.3	38.3	38.3	94	36.7	0	2	315	0.00	29.853 
08:50	38.3	38.3	38.3	94	36.7	1	3	292	0.00	29.853 
08:55	38.3	38.3	38.3	94	36.7	0	3	0	0.00	29.853 
09:00	38.3	38.3	38.3	94	36.7	0	2	0	0.00	29.867 
09:05	38.3	38.3	38.3	94	36.7	1	4	270	0.01	29.867 
09:10	38.3	38.3	38.3	94	36.7	0	2	270	0.00	29.867 
09:15	38.3	38.3	38.3	94	36.7	1	3	270	0.00	29.856 
09:20	38.3	38.3	38.3	94	36.7	0	2	270	0.00	29.856 
09:25	38.2	38.2	38.2	94	36.6	1	4	292	0.01	29.856 
09:30	37.9	37.9	37.9	94	36.3	2	6	270	0.00	29.847 
09:35	37.6	37.6	37.6	94	36.0	2	5	0	0.00	29.847 
09:40	37.6	37.6	37.6	94	36.0	1	3	0	0.01	29.847 
09:45	37.3	37.3	37.3	94	35.7	2	4	292	0.00	29.862 
09:50	37.2	37.2	37.2	94	35.6	1	5	270	0.00	29.862 
09:55	37.2	37.2	37.2	94	35.6	1	5	22	0.00	29.862 
10:00	37.3	37.3	37.3	94	35.7	1	4	315	0.01	29.854 
10:05	37.3	37.3	37.3	94	35.7	1	4	248	0.00	29.854 
10:10	37.3	37.3	37.3	94	35.7	2	6	292	0.00	29.854 
10:15	37.2	37.2	37.2	94	35.6	2	5	315	0.00	29.873 
10:20	37.0	37.0	37.0	94	35.4	2	5	292	0.01	29.873 
10:25	37.2	37.2	37.2	94	35.6	1	3	292	0.00	29.873 
10:30	36.9	36.9	36.9	94	35.3	2	5	292	0.00	29.887 
10:35	36.9	36.9	36.9	94	35.3	1	5	270	0.00	29.887 
10:40	36.6	36.6	36.6	94	35.0	1	4	0	0.00	29.887 
10:45	36.8	36.8	36.8	94	35.2	1	2	315	0.00	29.888 
10:50	36.6	36.6	36.6	94	35.0	1	4	315	0.00	29.888 
10:55	36.6	36.6	36.6	94	35.0	1	2	338	0.00	29.888 
11:00	36.6	36.6	36.6	94	35.0	1	4	338	0.00	29.886 
11:05	36.8	36.8	36.8	94	35.2	1	3	0	0.00	29.886 
11:10	36.8	36.8	36.8	94	35.2	1	5	270	0.01	29.886 
11:15	36.8	36.8	36.8	94	35.2	1	3	315	0.00	29.901 
11:20	36.9	36.9	36.9	94	35.3	1	3	315	0.00	29.901 
11:25	36.9	36.9	36.9	94	35.3	2	4	292	0.00	29.901 
11:30	36.9	36.9	36.9	94	35.3	1	4	270	0.00	29.892 
11:35	36.6	36.6	36.6	94	35.0	2	6	315	0.00	29.892 
11:40	36.5	36.5	36.5	94	34.9	2	5	292	0.00	29.892 
11:45	36.5	36.5	36.5	94	34.9	3	12	270	0.00	29.892 
11:50	36.3	36.3	36.3	97	35.5	3	9	292	0.00	29.892 
11:55	36.3	36.3	36.3	94	34.7	3	9	315	0.00	29.892 
12:00	36.3	36.3	36.3	94	34.7	3	7	338	0.00	29.903 
12:05	36.5	36.5	36.5	94	34.9	2	6	292	0.00	29.903 
12:10	36.5	36.5	36.5	94	34.9	3	10	292	0.01	29.903 
12:15	36.3	36.3	36.3	94	34.7	2	5	292	0.00	29.921 
12:20	36.5	36.5	36.5	94	34.9	3	6	270	0.00	29.921 
12:25	36.2	36.2	36.2	94	34.6	3	7	292	0.00	29.921 
12:30	36.2	36.2	36.2	94	34.6	3	6	292	0.00	29.935 
12:35	36.3	36.3	36.3	94	34.7	2	5	315	0.00	29.935 
12:40	36.6	36.6	36.6	94	35.0	2	6	270	0.00	29.935 
12:45	36.5	36.5	36.5	94	34.9	3	6	292	0.00	29.940 
12:50	36.6	36.6	36.6	94	35.0	2	5	315	0.00	29.940 
12:55	36.8	36.8	36.8	94	35.2	2	6	270	0.01	29.940 
13:00	36.8	36.8	36.8	94	35.2	3	6	270	0.00	29.939 
13:05	36.9	36.9	36.9	94	35.3	2	6	270	0.00	29.939 
13:10	36.9	36.9	36.9	93	35.1	3	5	315	0.00	29.939 
13:15	36.8	36.8	36.8	93	35.0	3	10	292	0.00	29.949 
13:20	36.8	36.8	36.8	93	35.0	3	7	315	0.00	29.949 
13:25	36.9	36.9	36.9	93	35.1	2	5	292	0.00	29.949 
13:30	36.6	36.6	36.6	93	34.8	2	5	315	0.00	29.950 
13:35	36.6	36.6	36.6	93	34.8	2	5	292	0.00	29.950 
13:40	36.8	36.8	36.8	93	35.0	1	4	315	0.00	29.950 
13:45	36.8	36.8	36.8	93	35.0	2	6	315	0.00	29.962 
13:50	36.8	36.8	36.8	93	35.0	2	4	270	0.00	29.962 
13:55	36.8	36.8	36.8	92	34.7	3	6	338	0.00	29.962 
14:00	36.9	36.9	36.9	93	35.1	2	5	270	0.00	29.972 
14:05	37.2	37.2	37.2	93	35.4	1	5	0	0.01	29.972 
14:10	37.3	37.3	37.3	93	35.5	2	4	270	0.00	29.972 
14:15	37.3	37.3	37.3	92	35.2	3	9	270	0.00	29.980 
14:20	37.3	37.3	37.3	92	35.2	2	5	315	0.00	29.980 
14:25	37.5	37.5	37.5	92	35.4	3	5	270	0.00	29.980 
14:30	37.6	37.6	37.6	92	35.5	2	5	270	0.00	29.988 
14:35	37.3	37.3	37.3	92	35.2	3	9	338	0.00	29.988 
14:40	37.5	37.5	37.5	91	35.1	3	10	270	0.00	29.988 
14:45	37.5	37.5	37.5	91	35.1	2	5	248	0.00	29.991 
14:50	37.9	37.9	37.9	92	35.8	2	6	270	0.00	29.991 
14:55	38.2	38.2	38.2	91	35.8	3	5	270	0.00	29.991 
15:00	38.2	38.2	38.2	91	35.8	3	7	270	0.01	29.997 
15:05	38.2	35.2	38.2	91	35.8	4	7	270	0.00	29.997 
15:10	38.3	38.3	38.3	91	35.9	3	6	270	0.00	29.997 
15:15	38.8	38.8	38.8	91	36.4	3	6	315	0.00	30.005 
15:20	39.3	39.3	39.3	91	36.9	3	6	270	0.00	30.005 
15:25	39.8	39.8	39.8	91	37.4	2	4	270	0.00	30.005 
15:30	39.8	39.8	39.8	89	36.8	3	8	270	0.00	30.007 
15:35	39.9	39.9	39.9	89	36.9	3	7	338	0.00	30.007 
15:40	39.9	39.9	39.9	88	36.6	3	6	248	0.00	30.007 
15:45	39.8	37.1	39.8	86	36.0	4	7	270	0.00	30.014 
15:50	39.6	36.9	39.6	84	35.2	4	10	315	0.00	30.014 
15:55	39.3	36.5	39.3	84	34.9	4	10	270	0.00	30.014 
16:00	39.9	39.9	39.9	84	35.5	3	6	270	0.00	30.020 
16:05	40.6	40.6	40.6	84	36.2	3	6	248	0.00	30.020 
16:10	41.1	41.1	41.1	81	35.7	2	5	270	0.00	30.020 
16:15	41.1	38.6	41.1	76	34.1	4	9	270	0.00	30.021 
16:20	41.2	41.2	41.2	75	33.9	3	6	248	0.00	30.021 
16:25	41.3	38.8	41.3	74	33.6	4	7	270	0.00	30.021 
16:30	40.9	38.4	40.9	69	31.5	4	9	270	0.00	30.032 
16:35	40.8	40.8	40.8	66	30.3	3	7	270	0.00	30.032 
16:40	41.5	41.5	41.5	65	30.6	3	10	270	0.00	30.032 
16:45	41.9	41.9	41.9	65	31.0	3	7	248	0.00	30.028 
16:50	42.5	42.5	42.5	65	31.6	3	7	270	0.00	30.028 
16:55	42.8	42.8	42.8	63	31.1	3	6	270	0.00	30.028 
17:00	43.1	43.1	43.1	64	31.8	3	6	270	0.00	30.025 
17:05	42.8	40.6	42.8	62	30.7	4	6	270	0.00	30.025 
17:10	42.6	42.6	42.6	62	30.5	3	5	248	0.00	30.025 
17:15	42.5	42.5	42.5	63	30.8	2	7	270	0.00	30.037 
17:20	42.6	42.6	42.6	61	30.1	3	8	270	0.00	30.037 
17:25	43.3	41.1	43.3	60	30.4	4	10	270	0.00	30.037 
17:30	43.8	43.8	43.8	60	30.8	3	9	270	0.00	30.037 
17:35	44.1	42.1	44.1	54	28.5	4	9	270	0.00	30.037 
17:40	44.1	42.1	44.1	54	28.5	4	6	270	0.00	30.037 
17:45	44.1	42.1	44.1	52	27.6	4	7	248	0.00	30.050 
17:50	43.9	43.9	43.9	49	26.0	3	9	315	0.00	30.050 
17:55	43.8	43.8	43.8	49	25.9	3	6	315	0.00	30.050 
18:00	43.9	41.8	43.9	49	26.0	4	10	270	0.00	30.054 
18:05	43.9	41.1	43.9	50	26.5	5	9	270	0.00	30.054 
18:10	43.8	41.7	43.8	50	26.4	4	7	270	0.00	30.054 
18:15	43.8	43.8	43.8	51	26.9	3	9	270	0.00	30.067 
18:20	43.6	41.5	43.6	50	26.2	4	9	270	0.00	30.067 
18:25	43.6	41.5	43.6	51	26.7	4	7	270	0.00	30.067 
18:30	43.3	43.3	43.3	51	26.4	3	6	270	0.00	30.079 
18:35	43.2	41.0	43.2	50	25.8	4	8	270	0.00	30.079 
18:40	43.1	43.1	43.1	51	26.2	3	11	270	0.00	30.079 
18:45	43.3	41.1	43.3	51	26.4	4	7	270	0.00	30.083 
18:50	43.6	41.5	43.6	50	26.2	4	8	270	0.00	30.083 
18:55	43.6	41.5	43.6	48	25.2	4	7	270	0.00	30.083 
19:00	43.6	43.6	43.6	49	25.7	3	7	270	0.00	30.085 
19:05	43.5	41.4	43.5	48	25.1	4	10	292	0.00	30.085 
19:10	43.3	43.3	43.3	48	24.9	3	6	270	0.00	30.085 
19:15	43.3	43.3	43.3	49	25.4	3	7	270	0.00	30.087 
19:20	43.3	43.3	43.3	47	24.4	3	7	270	0.00	30.087 
19:25	43.1	43.1	43.1	48	24.8	3	6	270	0.00	30.087 
19:30	42.9	42.9	42.9	48	24.6	2	5	270	0.00	30.091 
19:35	42.8	42.8	42.8	47	24.0	2	6	270	0.00	30.091 
19:40	42.6	42.6	42.6	45	22.8	2	7	338	0.00	30.091 
19:45	42.5	42.5	42.5	45	22.7	2	5	292	0.00	30.102 
19:50	42.3	42.3	42.3	45	22.5	2	4	292	0.00	30.102 
19:55	42.2	42.2	42.2	45	22.4	2	5	270	0.00	30.102 
20:00	41.9	41.9	41.9	44	21.6	2	4	270	0.00	30.114 
20:05	41.8	41.8	41.8	46	22.6	1	3	270	0.00	30.114 
20:10	41.6	41.6	41.6	46	22.4	2	5	248	0.00	30.114 
20:15	41.5	41.5	41.5	46	22.3	2	3	248	0.00	30.121 
20:20	41.2	41.2	41.2	47	22.5	0	2	248	0.00	30.121 
20:25	40.9	40.9	40.9	48	22.7	1	3	248	0.00	30.121 
20:30	40.6	40.6	40.6	49	23.0	0	1	248	0.00	30.134 
20:35	40.3	40.3	40.3	50	23.2	0	2	248	0.00	30.134 
20:40	40.2	40.2	40.2	50	23.1	0	1	248	0.00	30.134 
20:45	39.9	39.9	39.9	52	23.7	0	1	248	0.00	30.140 
20:50	39.5	39.5	39.5	54	24.2	0	0	---	0.00	30.140 
20:55	39.2	39.2	39.2	55	24.4	0	0	---	0.00	30.140 
21:00	38.8	38.8	38.8	56	24.5	0	0	---	0.00	30.154 
21:05	38.2	38.2	38.2	56	23.9	0	0	---	0.00	30.154 
21:10	37.8	37.8	37.8	56	23.5	0	0	---	0.00	30.154 
21:15	37.3	37.3	37.3	57	23.5	0	0	---	0.00	30.157 
21:20	37.0	37.0	37.0	58	23.6	0	0	---	0.00	30.157 
21:25	36.6	36.6	36.6	60	24.0	0	0	---	0.00	30.157 
21:30	36.3	36.3	36.3	62	24.5	0	0	---	0.00	30.167 
21:35	36.0	36.0	36.0	64	25.0	0	0	---	0.00	30.167 
21:40	35.9	35.9	35.9	66	25.7	0	0	---	0.00	30.167 
21:45	35.6	35.6	35.6	67	25.7	0	0	---	0.00	30.174 
21:50	35.3	35.3	35.3	67	25.5	0	0	---	0.00	30.174 
21:55	35.0	35.0	35.0	69	25.9	0	0	---	0.00	30.174 
22:00	34.9	34.9	34.9	71	26.5	0	0	---	0.00	30.182 
22:05	34.7	34.7	34.7	73	26.9	0	0	---	0.00	30.182 
22:10	34.4	34.4	34.4	73	26.7	0	0	---	0.00	30.182 
22:15	34.3	34.3	34.3	75	27.2	0	0	---	0.00	30.190 
22:20	34.1	34.1	34.1	75	27.0	0	0	---	0.00	30.190 
22:25	34.0	34.0	34.0	76	27.2	0	0	---	0.00	30.190 
22:30	33.8	33.8	33.8	77	27.4	0	0	---	0.00	30.192 
22:35	33.7	33.7	33.7	77	27.3	0	0	---	0.00	30.192 
22:40	33.7	33.7	33.7	77	27.3	0	0	---	0.00	30.192 
22:45	33.5	33.5	33.5	78	27.4	0	0	---	0.00	30.201 
22:50	33.4	33.4	33.4	78	27.3	0	0	---	0.00	30.201 
22:55	33.2	33.2	33.2	77	26.8	0	0	---	0.00	30.201 
23:00	33.2	33.2	33.2	77	26.8	0	0	---	0.00	30.194 
23:05	33.4	33.4	33.4	77	27.0	0	0	---	0.00	30.194 
23:10	33.5	33.5	33.5	77	27.1	0	0	---	0.00	30.194 
23:15	33.4	33.4	33.4	77	27.0	0	0	---	0.00	30.194 
23:20	33.4	33.4	33.4	77	27.0	0	0	---	0.00	30.194 
23:25	33.4	33.4	33.4	77	27.0	0	0	---	0.00	30.194 
23:30	33.2	33.2	33.2	77	26.8	0	0	---	0.00	30.193 
23:35	33.1	33.1	33.1	78	27.0	0	0	---	0.00	30.193 
23:40	33.1	33.1	33.1	78	27.0	0	0	---	0.00	30.193 
23:45	33.1	33.1	33.1	78	27.0	0	0	---	0.00	30.193 
23:50	33.1	33.1	33.1	79	27.3	0	0	---	0.00	30.193 
23:55	33.1	33.1	33.1	79	27.3	0	0	---	0.00	30.193 

CoCoRaHS
IN-AL-39
A2 Web Hosting
Creative Commons License
GoDaddy
search engine by freefind advanced

loaded 2018-11-15 16:22:24 • last modified 2010-11-18 10:43:29
Privacy PolicyDisclaimer
• wx.awcolley.com is powered by PmWiki v.2002016 •
• all content (unless otherwise noted) © 2018 A W Colley